Time;durP1;ratioP1;P1;durP2;ratioP2;P2;SDS_P1;SDS_P2;PMS_P1;PMS_P2;Temp;Humidity;BMP_temperature;BMP_pressure;BME280_temperature;BME280_humidity;BME280_pressure;Samples;Min_cycle;Max_cycle;Signal;HPM_P1;HPM_P2
2021/12/01 00:02:16;;;;;;;1.10;1.10;;;;;;;6.87;50.44;96196.84;5044907;28;20407;-80
2021/12/01 00:04:41;;;;;;;0.80;0.80;;;;;;;7.81;62.41;96236.00;5060155;28;20071;-76
2021/12/01 00:07:09;;;;;;;1.27;1.13;;;;;;;9.24;67.14;96215.16;5042371;28;20109;-75
2021/12/01 00:09:35;;;;;;;0.90;0.90;;;;;;;8.13;47.86;96254.00;5058578;28;20416;-76
2021/12/01 00:12:00;;;;;;;2.37;1.23;;;;;;;8.29;68.06;96221.69;5058870;28;20039;-75
2021/12/01 00:14:26;;;;;;;1.60;1.27;;;;;;;8.14;60.83;96188.75;5042890;28;20576;-75
2021/12/01 00:16:52;;;;;;;7.20;1.37;;;;;;;7.98;57.21;96207.91;5058820;28;20048;-76
2021/12/01 00:19:18;;;;;;;2.37;1.33;;;;;;;16.16;50.86;96221.00;5059461;28;20070;-76
2021/12/01 00:21:45;;;;;;;1.57;1.47;;;;;;;15.92;47.91;96229.97;5058694;28;20055;-75
2021/12/01 00:24:11;;;;;;;1.30;1.20;;;;;;;17.89;52.70;96218.25;5057781;28;20161;-75
2021/12/01 00:26:37;;;;;;;1.27;1.20;;;;;;;17.65;45.47;96256.91;5041681;28;20514;-75
2021/12/01 00:29:03;;;;;;;2.93;1.33;;;;;;;17.63;41.98;96237.59;5024705;28;20040;-75
2021/12/01 00:31:29;;;;;;;2.83;1.57;;;;;;;16.46;49.06;96238.81;5042035;28;20055;-75
2021/12/01 00:33:56;;;;;;;1.03;1.03;;;;;;;16.57;37.48;96235.81;5041280;28;20044;-75
2021/12/01 00:36:22;;;;;;;1.10;1.10;;;;;;;24.78;47.33;96203.13;5093344;28;20067;-75
2021/12/01 00:38:48;;;;;;;0.97;0.97;;;;;;;16.63;40.59;96240.06;5041039;28;20040;-76
2021/12/01 00:41:15;;;;;;;1.07;1.07;;;;;;;17.50;74.29;96216.78;5040810;28;20047;-75
2021/12/01 00:43:40;;;;;;;1.80;1.37;;;;;;;16.50;67.98;96227.28;5057610;28;20110;-75
2021/12/01 00:46:19;;;;;;;4.30;1.40;;;;;;;16.11;69.82;96202.31;5057457;28;20044;-74
2021/12/01 00:48:46;;;;;;;0.90;0.90;;;;;;;18.96;66.37;96162.69;5040173;28;20507;-74
2021/12/01 00:51:12;;;;;;;1.40;1.30;;;;;;;15.40;62.54;96194.81;5040221;28;20071;-73
2021/12/01 00:53:38;;;;;;;1.63;1.20;;;;;;;16.14;37.91;96239.25;5056957;28;20067;-74
2021/12/01 00:56:04;;;;;;;1.33;1.23;;;;;;;15.05;31.44;96204.47;5073799;28;20044;-76
2021/12/01 00:58:30;;;;;;;0.80;0.80;;;;;;;13.65;29.48;96214.91;5073984;28;20048;-77
2021/12/01 01:00:58;;;;;;;1.50;1.37;;;;;;;17.13;35.30;96208.56;5057268;28;20530;-75
2021/12/01 01:03:24;;;;;;;1.00;1.00;;;;;;;23.84;50.03;96194.72;5040827;28;20036;-75
2021/12/01 01:05:49;;;;;;;1.23;1.17;;;;;;;20.06;52.72;96208.28;5057017;28;20040;-76
2021/12/01 01:08:17;;;;;;;1.20;1.10;;;;;;;19.39;41.53;96201.00;5056788;28;20526;-77
2021/12/01 01:18:44;;;;;;;1.03;1.03;;;;;;;18.39;28.29;96187.25;5057699;28;20096;-76
2021/12/01 01:21:11;;;;;;;1.43;1.33;;;;;;;23.03;37.85;96183.91;5058075;28;20548;-75
2021/12/01 01:23:37;;;;;;;2.17;1.50;;;;;;;16.46;67.68;96204.00;5040961;28;20039;-77
2021/12/01 01:26:08;;;;;;;0.80;0.80;;;;;;;16.95;37.62;96246.78;5091634;28;20051;-77
2021/12/01 01:28:34;;;;;;;1.17;1.17;;;;;;;19.02;38.75;96249.47;5091630;28;20483;-77
2021/12/01 01:30:59;;;;;;;1.13;1.13;;;;;;;17.21;36.61;96254.34;5056301;28;20051;-77
2021/12/01 01:33:26;;;;;;;2.03;1.47;;;;;;;18.57;37.32;96229.47;5056665;28;20062;-75
2021/12/01 01:35:52;;;;;;;1.30;0.97;;;;;;;18.60;36.08;96250.38;5056472;28;20044;-75
2021/12/01 01:38:18;;;;;;;1.63;1.47;;;;;;;18.59;30.66;96267.56;5056623;28;20086;-75
2021/12/01 01:40:44;;;;;;;3.43;1.97;;;;;;;17.63;36.81;96218.81;5073378;28;20407;-75
2021/12/01 01:43:10;;;;;;;1.67;1.43;;;;;;;15.93;43.98;96243.06;5055691;28;20044;-76
2021/12/01 01:45:36;;;;;;;1.17;1.13;;;;;;;15.19;43.42;96248.28;5039239;28;20055;-75
2021/12/01 01:48:08;;;;;;;1.13;1.13;;;;;;;10.58;59.13;96233.94;5039557;28;20047;-75
2021/12/01 01:50:37;;;;;;;0.90;0.90;;;;;;;14.88;46.94;96235.22;5039262;28;20039;-75
2021/12/01 01:53:17;;;;;;;1.07;1.03;;;;;;;15.08;52.49;96235.22;5039977;28;20416;-75
2021/12/01 01:55:45;;;;;;;1.30;1.20;;;;;;;15.02;47.60;96214.94;5056708;28;20496;-75
2021/12/01 01:58:14;;;;;;;1.13;1.13;;;;;;;14.83;44.70;96245.91;5073410;28;20040;-75
2021/12/01 02:01:34;;;;;;;0.73;0.73;;;;;;;14.63;45.58;96240.56;5073197;28;20051;-75
2021/12/01 02:03:27;;;;;;;2.20;1.70;;;;;;;10.47;57.55;96236.66;5048339;28;20135;-75
2021/12/01 02:05:53;;;;;;;3.27;1.23;;;;;;;12.65;47.93;96244.31;5037990;28;20059;-75
2021/12/01 02:08:20;;;;;;;1.17;1.07;;;;;;;14.16;43.75;96259.38;5054119;28;20040;-75
2021/12/01 02:10:48;;;;;;;0.70;0.70;;;;;;;13.57;43.81;96242.06;5071510;28;20044;-75
2021/12/01 02:13:18;;;;;;;1.00;1.00;;;;;;;13.69;43.00;96255.16;5070701;28;20044;-75
2021/12/01 02:15:45;;;;;;;1.70;1.60;;;;;;;12.96;46.31;96278.13;5053479;28;20040;-74
2021/12/01 02:18:11;;;;;;;1.40;1.30;;;;;;;16.02;50.40;96254.00;5036163;28;20052;-74
2021/12/01 02:20:38;;;;;;;1.10;1.00;;;;;;;16.46;36.55;96298.56;5039382;28;20131;-74
2021/12/01 02:23:04;;;;;;;1.20;1.10;;;;;;;15.85;36.84;96274.94;5039224;28;20048;-75
2021/12/01 02:25:30;;;;;;;1.43;1.33;;;;;;;14.92;38.69;96241.63;5054575;28;20579;-74
2021/12/01 02:27:56;;;;;;;1.93;1.83;;;;;;;14.15;45.01;96265.78;5055499;28;20069;-74
2021/12/01 02:30:23;;;;;;;1.20;1.10;;;;;;;14.86;36.22;96282.78;5090212;28;20048;-74
2021/12/01 02:32:51;;;;;;;3.10;1.50;;;;;;;15.48;35.41;96302.06;5073096;28;20079;-74
2021/12/01 02:35:17;;;;;;;1.13;1.10;;;;;;;14.59;37.51;96276.88;5039956;28;20039;-74
2021/12/01 02:37:43;;;;;;;1.30;1.20;;;;;;;13.00;34.59;96305.09;5039660;28;20051;-74
2021/12/01 02:40:09;;;;;;;1.20;1.20;;;;;;;13.27;35.55;96281.84;5055946;28;20137;-74
2021/12/01 02:42:35;;;;;;;2.30;1.30;;;;;;;10.44;51.97;96280.38;5072175;28;20048;-74
2021/12/01 02:45:02;;;;;;;1.47;1.37;;;;;;;13.34;41.10;96272.59;5038723;28;20040;-74
2021/12/01 02:47:29;;;;;;;1.50;1.40;;;;;;;11.48;57.31;96247.75;5072310;28;20040;-74
2021/12/01 02:49:55;;;;;;;1.80;1.57;;;;;;;13.67;47.15;96275.97;5038720;28;20518;-74
2021/12/01 02:52:22;;;;;;;1.37;1.27;;;;;;;14.11;42.63;96277.22;5055799;28;20091;-74
2021/12/01 02:54:48;;;;;;;2.83;1.50;;;;;;;12.29;40.71;96284.13;5055945;28;20040;-74
2021/12/01 02:57:14;;;;;;;1.20;1.10;;;;;;;12.43;55.19;96251.56;5024773;28;20404;-75
2021/12/01 02:59:41;;;;;;;0.97;0.93;;;;;;;13.28;39.58;96265.59;5041780;28;20199;-73
2021/12/01 03:02:07;;;;;;;1.00;1.00;;;;;;;12.59;36.15;96311.84;5041877;28;20428;-73
2021/12/01 03:04:34;;;;;;;0.90;0.90;;;;;;;14.68;37.04;96299.31;5075104;28;20049;-73
2021/12/01 03:07:02;;;;;;;1.10;1.10;;;;;;;13.62;36.25;96291.94;5057873;28;20052;-76
2021/12/01 03:09:28;;;;;;;1.40;1.10;;;;;;;13.62;39.43;96302.59;5075441;28;20535;-75
2021/12/01 03:11:54;;;;;;;1.50;1.00;;;;;;;13.53;38.92;96302.25;5041593;28;20165;-73
2021/12/01 03:14:21;;;;;;;1.50;1.17;;;;;;;11.76;52.98;96290.16;5057987;28;20043;-73
2021/12/01 03:16:48;;;;;;;1.30;1.20;;;;;;;11.57;41.54;96280.84;5093065;28;20058;-72
2021/12/01 03:19:14;;;;;;;1.20;1.20;;;;;;;12.72;39.93;96294.69;5057792;28;20056;-73
2021/12/01 03:21:41;;;;;;;1.30;1.20;;;;;;;12.65;38.95;96286.91;5057717;28;20083;-72
2021/12/01 03:24:07;;;;;;;1.03;1.03;;;;;;;14.25;35.86;96310.41;5074361;28;20059;-74
2021/12/01 03:26:34;;;;;;;1.37;1.27;;;;;;;13.08;42.57;96232.69;5057825;28;20101;-73
2021/12/01 03:29:00;;;;;;;2.93;1.10;;;;;;;14.25;36.29;96332.56;5074773;28;20096;-73
2021/12/01 03:31:26;;;;;;;1.80;1.33;;;;;;;11.05;44.97;96298.13;5057489;28;20478;-72
2021/12/01 03:33:52;;;;;;;0.90;0.90;;;;;;;13.67;37.15;96292.75;5041353;28;20048;-73
2021/12/01 03:36:18;;;;;;;1.30;1.20;;;;;;;13.03;42.62;96308.06;5057972;28;20040;-75
2021/12/01 03:38:44;;;;;;;1.37;1.23;;;;;;;14.28;38.17;96299.22;5041127;28;20040;-73
2021/12/01 03:41:10;;;;;;;1.37;1.27;;;;;;;12.89;39.54;96314.81;5057392;28;20046;-73
2021/12/01 03:43:36;;;;;;;1.83;1.53;;;;;;;13.65;37.79;96302.09;5040764;28;20142;-73
2021/12/01 03:46:02;;;;;;;1.10;1.10;;;;;;;12.89;36.51;96319.34;5073828;28;20052;-73
2021/12/01 03:48:28;;;;;;;1.53;1.40;;;;;;;13.12;40.03;96301.19;5024215;28;20044;-73
2021/12/01 03:50:54;;;;;;;1.03;1.03;;;;;;;13.91;36.21;96317.16;5073676;28;20040;-73
2021/12/01 03:53:22;;;;;;;1.60;0.83;;;;;;;13.58;35.49;96316.44;5057591;28;20044;-72
2021/12/01 03:55:48;;;;;;;0.90;0.90;;;;;;;13.38;37.00;96223.03;5057547;28;20048;-74
2021/12/01 03:58:14;;;;;;;1.53;1.20;;;;;;;13.36;37.92;96310.44;5040833;28;20040;-75
2021/12/01 04:00:41;;;;;;;1.00;1.00;;;;;;;12.97;34.97;96324.22;5057093;28;20044;-74
2021/12/01 04:03:06;;;;;;;1.50;1.40;;;;;;;13.70;38.06;96310.91;5023855;28;20146;-74
2021/12/01 04:05:33;;;;;;;0.77;0.77;;;;;;;12.52;37.88;96315.78;5024144;28;20091;-74
2021/12/01 04:08:01;;;;;;;1.10;1.10;;;;;;;13.31;36.57;96310.41;5072574;28;20040;-74
2021/12/01 04:10:28;;;;;;;1.50;1.40;;;;;;;13.23;36.99;96312.72;5073607;28;20128;-73
2021/12/01 04:12:54;;;;;;;1.00;1.00;;;;;;;13.43;38.72;96304.88;5073842;28;20050;-74
2021/12/01 04:15:20;;;;;;;0.97;0.97;;;;;;;12.74;38.30;96335.16;5040411;28;20044;-73
2021/12/01 04:17:47;;;;;;;4.80;1.40;;;;;;;10.16;43.54;96336.88;5073507;28;20064;-74
2021/12/01 04:20:17;;;;;;;1.57;1.47;;;;;;;11.77;40.49;96315.69;5040115;28;20082;-73
2021/12/01 04:22:47;;;;;;;0.90;0.90;;;;;;;13.03;36.92;96336.53;5073445;28;20044;-73
2021/12/01 04:25:13;;;;;;;1.05;1.05;;;;;;;12.48;37.63;96343.94;5040419;28;20142;-73
2021/12/01 04:27:39;;;;;;;0.80;0.80;;;;;;;11.70;36.33;96339.00;5040158;28;20150;-73
2021/12/01 04:30:08;;;;;;;0.97;0.97;;;;;;;12.79;37.78;96329.91;5056739;28;20526;-73
2021/12/01 04:32:34;;;;;;;1.40;1.40;;;;;;;13.55;42.40;96298.31;5073137;28;20055;-73
2021/12/01 04:35:01;;;;;;;1.27;1.17;;;;;;;15.25;34.88;96353.38;5040002;28;20040;-73
2021/12/01 04:37:28;;;;;;;0.80;0.80;;;;;;;15.06;35.39;96345.06;5073074;28;20043;-74
2021/12/01 04:39:54;;;;;;;1.00;1.00;;;;;;;13.17;33.15;96373.19;5073880;28;20100;-74
2021/12/01 04:42:20;;;;;;;1.30;1.20;;;;;;;14.05;34.86;96347.66;5056497;28;20040;-73
2021/12/01 04:44:46;;;;;;;3.50;1.10;;;;;;;13.08;34.17;96349.91;5091181;28;20129;-73
2021/12/01 04:47:17;;;;;;;0.90;0.90;;;;;;;14.01;36.20;96355.34;5056731;28;20197;-73
2021/12/01 04:49:44;;;;;;;0.90;0.90;;;;;;;13.63;34.19;96355.66;5057313;28;20553;-70
2021/12/01 04:52:10;;;;;;;1.23;1.10;;;;;;;12.26;33.76;96362.59;5090734;28;20092;-70
2021/12/01 04:54:36;;;;;;;1.43;1.33;;;;;;;13.28;35.36;96302.13;5039422;28;20055;-72
2021/12/01 04:57:04;;;;;;;1.00;1.00;;;;;;;13.84;36.35;96312.06;5072873;28;20515;-72
2021/12/01 04:59:31;;;;;;;1.30;1.20;;;;;;;12.82;33.14;96358.69;5073140;28;20408;-73
2021/12/01 05:01:58;;;;;;;1.30;1.20;;;;;;;12.15;30.70;96390.09;5090884;28;20131;-70
2021/12/01 05:04:24;;;;;;;4.13;2.97;;;;;;;12.54;30.22;96393.50;5090718;28;20051;-70
2021/12/01 05:06:50;;;;;;;1.10;1.10;;;;;;;12.65;30.78;96392.59;5055408;28;20074;-73
2021/12/01 05:09:16;;;;;;;0.90;0.90;;;;;;;12.43;30.18;96421.06;5072246;28;20071;-73
2021/12/01 05:11:42;;;;;;;2.30;0.90;;;;;;;11.98;30.98;96341.47;5038974;28;20036;-71
2021/12/01 05:14:09;;;;;;;1.20;1.10;;;;;;;12.45;31.63;96387.84;5055844;28;20047;-71
2021/12/01 05:16:36;;;;;;;0.90;0.87;;;;;;;12.72;31.70;96382.53;5006454;28;20046;-73
2021/12/01 05:19:05;;;;;;;1.50;1.40;;;;;;;13.62;28.94;96383.41;5055608;28;20146;-73
2021/12/01 05:21:32;;;;;;;0.97;0.97;;;;;;;12.67;30.01;96401.13;5064855;28;20032;-68
2021/12/01 05:23:58;;;;;;;1.53;1.43;;;;;;;12.24;30.85;96415.22;5054327;28;20407;-66
2021/12/01 05:26:24;;;;;;;1.50;1.40;;;;;;;12.66;29.98;96424.28;5054804;28;20048;-67
2021/12/01 05:28:50;;;;;;;0.90;0.90;;;;;;;13.00;31.18;96417.75;5070941;28;20044;-66
2021/12/01 05:31:16;;;;;;;2.13;1.67;;;;;;;12.03;29.87;96416.00;5053810;28;20044;-66
2021/12/01 05:33:41;;;;;;;0.90;0.90;;;;;;;11.68;31.61;96404.88;5053988;28;20043;-67
2021/12/01 05:36:08;;;;;;;1.10;1.10;;;;;;;12.71;31.14;96410.22;5071117;28;20496;-72
2021/12/01 05:38:34;;;;;;;2.70;1.30;;;;;;;12.47;31.46;96416.88;5053159;28;20047;-72
2021/12/01 05:41:02;;;;;;;1.40;1.30;;;;;;;12.84;30.07;96426.59;5021343;28;20039;-69
2021/12/01 05:43:28;;;;;;;1.40;1.30;;;;;;;13.28;30.67;96406.81;5051926;28;20040;-71
2021/12/01 05:45:56;;;;;;;5.23;1.20;;;;;;;13.26;29.42;96427.63;5034144;28;20039;-72
2021/12/01 05:48:22;;;;;;;0.80;0.80;;;;;;;12.18;29.00;96359.56;5051639;28;20131;-72
2021/12/01 05:50:48;;;;;;;0.87;0.87;;;;;;;12.59;29.00;96439.63;5068399;28;20214;-71
2021/12/01 05:53:14;;;;;;;1.40;1.30;;;;;;;12.22;30.85;96425.34;5068404;28;20461;-71
2021/12/01 05:55:40;;;;;;;1.70;1.43;;;;;;;12.36;30.98;96437.19;5067920;28;20040;-71
2021/12/01 05:58:06;;;;;;;1.73;1.27;;;;;;;12.08;30.64;96429.38;5051807;28;20040;-71
2021/12/01 06:00:32;;;;;;;3.80;0.90;;;;;;;11.62;30.86;96438.53;5068142;28;20056;-73
2021/12/01 06:02:58;;;;;;;1.37;1.27;;;;;;;12.45;30.78;96451.72;5035229;28;20079;-65
2021/12/01 06:05:24;;;;;;;1.10;1.10;;;;;;;9.60;41.88;96388.91;5051790;28;20040;-74
2021/12/01 06:07:50;;;;;;;1.40;1.30;;;;;;;11.86;33.53;96437.31;5034511;28;20048;-72
2021/12/01 06:10:17;;;;;;;2.00;1.23;;;;;;;12.16;31.78;96433.47;5033432;28;20062;-73
2021/12/01 06:12:44;;;;;;;1.30;1.20;;;;;;;11.63;32.87;96445.47;5086052;28;20147;-72
2021/12/01 06:15:13;;;;;;;2.43;1.47;;;;;;;12.40;31.75;96462.28;5068516;28;20101;-70
2021/12/01 06:17:40;;;;;;;1.20;1.20;;;;;;;11.51;30.79;96465.16;5067963;28;20128;-73
2021/12/01 06:20:07;;;;;;;0.83;0.83;;;;;;;12.37;30.58;96457.44;5051039;28;20044;-71
2021/12/01 06:22:33;;;;;;;1.00;1.00;;;;;;;11.66;31.56;96449.50;5068168;28;20522;-70
2021/12/01 06:24:59;;;;;;;1.07;1.07;;;;;;;11.59;32.28;96416.94;5086602;28;20044;-71
2021/12/01 06:27:25;;;;;;;1.40;1.30;;;;;;;12.13;32.20;96449.94;5086518;28;20380;-74
2021/12/01 06:29:54;;;;;;;1.20;1.13;;;;;;;11.67;30.89;96451.09;5086238;28;20082;-73
2021/12/01 06:32:21;;;;;;;0.97;0.97;;;;;;;10.58;33.73;96450.69;5053851;28;20072;-74
2021/12/01 06:34:47;;;;;;;1.10;1.10;;;;;;;11.60;31.21;96471.69;5054858;28;20043;-72
2021/12/01 06:37:13;;;;;;;1.13;1.07;;;;;;;12.21;32.00;96434.34;5071031;28;20055;-68
2021/12/01 06:39:38;;;;;;;1.30;1.30;;;;;;;11.58;30.68;96479.09;5072165;28;20052;-70
2021/12/01 06:42:05;;;;;;;0.93;0.93;;;;;;;12.01;31.54;96439.38;5077278;28;20381;-72
2021/12/01 06:44:30;;;;;;;1.53;1.43;;;;;;;10.86;32.63;96469.28;5089206;28;20032;-69
2021/12/01 06:46:57;;;;;;;1.70;1.47;;;;;;;11.90;32.62;96475.66;5072002;28;20738;-72
2021/12/01 06:49:23;;;;;;;1.90;1.60;;;;;;;11.59;32.93;96476.19;5071663;28;20052;-70
2021/12/01 06:51:49;;;;;;;2.80;1.73;;;;;;;10.38;36.85;96479.47;5089934;28;20101;-72
2021/12/01 06:54:15;;;;;;;5.10;2.47;;;;;;;10.04;32.90;96476.56;5089953;28;20105;-70
2021/12/01 06:56:40;;;;;;;2.00;1.80;;;;;;;11.07;32.60;96458.03;5071591;28;20117;-68
2021/12/01 06:59:06;;;;;;;6.93;1.53;;;;;;;11.08;40.73;96470.25;5054620;28;20047;-70
2021/12/01 07:01:32;;;;;;;1.27;1.17;;;;;;;11.28;36.02;96476.72;5070820;28;20055;-68
2021/12/01 07:03:57;;;;;;;1.50;1.40;;;;;;;10.80;33.20;96491.47;5071157;28;20040;-66
2021/12/01 07:06:24;;;;;;;1.10;1.10;;;;;;;11.28;31.49;96484.69;5071198;28;20135;-69
2021/12/01 07:08:49;;;;;;;1.00;1.00;;;;;;;11.90;31.33;96461.53;5089004;28;20127;-70
2021/12/01 07:11:15;;;;;;;7.00;1.83;;;;;;;11.28;30.85;96508.59;5072604;28;20621;-68
2021/12/01 07:13:41;;;;;;;1.20;1.13;;;;;;;11.85;32.42;96510.13;5091339;28;20051;-71
2021/12/01 07:16:07;;;;;;;1.47;1.37;;;;;;;11.05;39.01;96482.16;5091441;28;20036;-69
2021/12/01 07:18:32;;;;;;;1.00;1.00;;;;;;;11.66;31.72;96515.94;5040192;28;20052;-70
2021/12/01 07:20:58;;;;;;;1.37;1.27;;;;;;;12.29;30.38;96481.00;5091548;28;20039;-66
2021/12/01 07:23:24;;;;;;;1.40;1.30;;;;;;;12.05;32.07;96509.66;5073255;28;20127;-71
2021/12/01 07:25:50;;;;;;;0.97;0.93;;;;;;;11.27;30.84;96512.28;5072734;28;20044;-71
2021/12/01 07:28:16;;;;;;;1.07;1.07;;;;;;;12.73;30.73;96519.94;5090823;28;20067;-70
2021/12/01 07:30:43;;;;;;;1.00;1.00;;;;;;;12.34;31.08;96497.84;5039655;28;20036;-69
2021/12/01 07:33:09;;;;;;;2.03;1.40;;;;;;;11.56;30.24;96510.44;5073394;28;20089;-70
2021/12/01 07:35:34;;;;;;;1.83;1.50;;;;;;;11.70;31.21;96519.75;5091074;28;20044;-71
2021/12/01 07:38:00;;;;;;;1.93;1.40;;;;;;;11.67;31.85;96512.22;5091083;28;20499;-71
2021/12/01 07:40:26;;;;;;;1.60;1.50;;;;;;;12.38;29.85;96543.41;5056550;28;20118;-72
2021/12/01 07:42:52;;;;;;;1.27;1.20;;;;;;;11.34;31.44;96485.59;5056005;28;20040;-73
2021/12/01 07:45:18;;;;;;;1.43;1.33;;;;;;;11.16;30.81;96523.75;5091268;28;21055;-73
2021/12/01 07:47:43;;;;;;;0.70;0.70;;;;;;;10.67;32.17;96536.84;5073042;28;20534;-72
2021/12/01 07:50:10;;;;;;;1.57;1.10;;;;;;;12.34;31.21;96521.81;5056523;28;20543;-72
2021/12/01 07:52:36;;;;;;;1.27;1.17;;;;;;;12.46;31.75;96557.09;5091333;28;20138;-73
2021/12/01 07:55:03;;;;;;;3.07;1.60;;;;;;;12.01;31.22;96513.84;5056159;28;20047;-71
2021/12/01 07:57:29;;;;;;;2.00;1.40;;;;;;;12.43;31.29;96560.25;5091146;28;20097;-70
2021/12/01 07:59:55;;;;;;;1.80;1.70;;;;;;;11.07;32.65;96532.38;5073470;28;20459;-72
2021/12/01 08:02:21;;;;;;;2.00;1.53;;;;;;;10.99;31.65;96544.16;5072895;28;20052;-71
2021/12/01 08:04:47;;;;;;;1.70;1.60;;;;;;;10.44;32.09;96576.69;5055643;28;20073;-71
2021/12/01 08:07:13;;;;;;;2.70;1.53;;;;;;;11.54;32.02;96574.44;5055815;28;20036;-72
2021/12/01 08:09:38;;;;;;;2.10;1.37;;;;;;;11.34;32.19;96568.75;5072186;28;20047;-72
2021/12/01 08:12:07;;;;;;;1.63;1.53;;;;;;;11.03;31.69;96565.72;5055410;28;20044;-73
2021/12/01 08:14:33;;;;;;;1.87;1.50;;;;;;;11.17;33.05;96554.63;5056664;28;20048;-73
2021/12/01 08:16:59;;;;;;;1.10;1.10;;;;;;;12.14;33.46;96518.84;5055986;28;20170;-72
2021/12/01 08:19:25;;;;;;;1.00;1.00;;;;;;;12.96;30.16;96554.31;5056055;28;20056;-73
2021/12/01 08:21:50;;;;;;;2.37;1.57;;;;;;;12.82;29.77;96580.50;5072272;28;20412;-72
2021/12/01 08:24:17;;;;;;;1.70;1.17;;;;;;;13.22;29.57;96573.03;5072540;28;20100;-70
2021/12/01 08:26:44;;;;;;;1.70;1.60;;;;;;;13.36;30.26;96589.47;5022794;28;20208;-72
2021/12/01 08:29:11;;;;;;;1.43;1.23;;;;;;;11.99;30.63;96586.94;5055783;28;20039;-72
2021/12/01 08:31:36;;;;;;;2.07;1.53;;;;;;;10.64;32.34;96601.00;5090098;28;20047;-73
2021/12/01 08:34:02;;;;;;;2.03;1.50;;;;;;;11.34;31.80;96566.09;5055465;28;20131;-73
2021/12/01 08:36:28;;;;;;;1.33;1.23;;;;;;;12.50;30.68;96582.16;5055623;28;20048;-67
2021/12/01 08:38:55;;;;;;;1.07;1.00;;;;;;;13.03;30.80;96581.59;5072510;28;20039;-73
2021/12/01 08:41:21;;;;;;;1.20;1.20;;;;;;;12.67;31.08;96582.94;5054980;28;20068;-73
2021/12/01 08:43:47;;;;;;;0.83;0.83;;;;;;;12.78;31.02;96565.25;5055062;28;20082;-73
2021/12/01 08:46:13;;;;;;;2.00;1.60;;;;;;;10.97;31.82;96551.56;5038743;28;20040;-72
2021/12/01 08:48:38;;;;;;;1.20;1.20;;;;;;;12.02;31.33;96579.31;5072687;28;20039;-73
2021/12/01 08:51:05;;;;;;;1.50;1.40;;;;;;;12.70;31.55;96593.09;5055335;28;20040;-73
2021/12/01 08:53:32;;;;;;;1.30;1.20;;;;;;;12.73;30.27;96586.50;5072178;28;20122;-73
2021/12/01 08:56:00;;;;;;;1.00;1.00;;;;;;;13.04;30.70;96578.69;5071777;28;20069;-67
2021/12/01 08:58:26;;;;;;;1.10;1.00;;;;;;;13.49;31.34;96597.91;5038881;28;20445;-73
2021/12/01 09:00:54;;;;;;;1.00;1.00;;;;;;;13.73;30.72;96602.94;5055119;28;20419;-72
2021/12/01 09:03:20;;;;;;;1.47;1.37;;;;;;;13.25;29.55;96558.44;5055199;28;20051;-72
2021/12/01 09:05:46;;;;;;;3.87;1.63;;;;;;;11.96;33.51;96584.78;5055344;28;20051;-73
2021/12/01 09:08:13;;;;;;;1.27;1.27;;;;;;;12.93;32.72;96574.25;5054786;28;20054;-71
2021/12/01 09:10:39;;;;;;;4.87;4.40;;;;;;;10.54;38.00;96598.94;5055067;28;20043;-72
2021/12/01 09:13:06;;;;;;;1.50;1.40;;;;;;;10.96;35.83;96581.78;5038167;28;20036;-73
2021/12/01 09:15:33;;;;;;;1.30;1.20;;;;;;;12.78;31.21;96589.22;5089069;28;20096;-71
2021/12/01 09:18:00;;;;;;;1.70;1.60;;;;;;;12.23;33.21;96589.22;5071104;28;20135;-71
2021/12/01 09:20:26;;;;;;;1.13;1.13;;;;;;;12.36;31.29;96577.44;5071050;28;20047;-72
2021/12/01 09:22:53;;;;;;;1.27;1.27;;;;;;;12.26;31.95;96610.00;5054226;28;20093;-71
2021/12/01 09:25:19;;;;;;;1.27;1.23;;;;;;;11.12;32.48;96602.31;5070940;28;20044;-72
2021/12/01 09:27:46;;;;;;;1.50;1.40;;;;;;;11.43;33.52;96590.44;5037394;28;20582;-74
2021/12/01 09:30:14;;;;;;;1.00;1.00;;;;;;;13.46;33.14;96555.75;5054247;28;20089;-72
2021/12/01 09:32:40;;;;;;;1.40;1.30;;;;;;;11.89;33.14;96560.97;5055022;28;20127;-71
2021/12/01 09:35:07;;;;;;;1.10;1.10;;;;;;;12.71;31.17;96546.81;5054368;28;20170;-70
2021/12/01 09:37:34;;;;;;;0.90;0.90;;;;;;;11.84;33.99;96521.81;5070899;28;20048;-73
2021/12/01 09:40:02;;;;;;;1.50;1.40;;;;;;;11.74;36.56;96550.91;5089121;28;20044;-71
2021/12/01 09:42:29;;;;;;;2.13;1.93;;;;;;;10.81;35.58;96565.53;5071568;28;20178;-67
2021/12/01 09:44:56;;;;;;;1.63;1.20;;;;;;;11.24;33.27;96589.00;5055111;28;20032;-72
2021/12/01 09:47:24;;;;;;;3.90;1.80;;;;;;;10.29;36.30;96582.44;5070551;28;20560;-73
2021/12/01 09:49:50;;;;;;;0.87;0.87;;;;;;;11.27;34.46;96564.63;5070481;28;20079;-73
2021/12/01 09:52:18;;;;;;;0.90;0.90;;;;;;;12.17;34.50;96586.72;5069933;28;20047;-72
2021/12/01 09:54:44;;;;;;;1.00;1.00;;;;;;;12.32;33.53;96582.44;5070599;28;20096;-73
2021/12/01 09:57:13;;;;;;;0.80;0.80;;;;;;;12.70;33.53;96573.69;5070298;28;20150;-72
2021/12/01 09:59:41;;;;;;;1.10;1.10;;;;;;;12.18;33.47;96601.63;5051869;28;20048;-70
2021/12/01 10:02:07;;;;;;;1.70;1.60;;;;;;;10.87;37.14;96587.72;5069298;28;20044;-71
2021/12/01 10:04:33;;;;;;;1.70;1.17;;;;;;;9.83;36.25;96583.16;5036710;28;20108;-72
2021/12/01 10:07:14;;;;;;;1.63;1.20;;;;;;;11.17;37.08;96593.63;5055330;28;20525;-68
2021/12/01 10:09:50;;;;;;;1.40;1.30;;;;;;;11.00;34.97;96600.72;5057410;28;20039;-72
2021/12/01 10:12:16;;;;;;;1.43;1.33;;;;;;;11.27;35.93;96576.03;5074387;28;20072;-72
2021/12/01 10:14:47;;;;;;;1.67;1.40;;;;;;;11.92;33.23;96600.38;5024576;28;20094;-71
2021/12/01 10:17:13;;;;;;;1.42;1.33;;;;;;;11.45;33.44;96549.31;5057952;28;20043;-71
2021/12/01 10:19:39;;;;;;;1.17;1.10;;;;;;;12.30;35.01;96589.06;5074267;28;20048;-71
2021/12/01 10:22:09;;;;;;;5.33;1.70;;;;;;;11.82;35.16;96593.03;5074232;28;20440;-71
2021/12/01 10:24:37;;;;;;;0.90;0.90;;;;;;;10.82;34.48;96590.25;5074378;28;20050;-71
2021/12/01 10:27:11;;;;;;;1.00;1.00;;;;;;;11.28;34.25;96596.28;5074053;28;20044;-73
2021/12/01 10:29:48;;;;;;;1.20;1.07;;;;;;;12.60;32.62;96587.66;5074117;28;20248;-73
2021/12/01 10:32:16;;;;;;;1.63;1.53;;;;;;;11.19;33.80;96610.16;5057638;28;20047;-72
2021/12/01 10:34:47;;;;;;;0.93;0.93;;;;;;;12.52;35.73;96604.03;5074447;28;20044;-71
2021/12/01 10:40:20;;;;;;;1.27;1.17;;;;;;;13.31;33.46;96608.88;5074211;28;20143;-73
2021/12/01 10:42:58;;;;;;;1.27;1.27;;;;;;;12.73;32.39;96611.25;5073786;28;20048;-72
2021/12/01 10:45:38;;;;;;;2.60;1.53;;;;;;;11.79;32.90;96608.69;5040899;28;20070;-71
2021/12/01 10:48:06;;;;;;;0.90;0.90;;;;;;;12.35;33.91;96565.16;5040502;28;20043;-72
2021/12/01 10:50:35;;;;;;;1.20;1.20;;;;;;;12.24;33.97;96574.84;5091768;28;20090;-71
2021/12/01 10:53:03;;;;;;;1.37;1.10;;;;;;;11.98;33.85;96606.63;5057546;28;20040;-72
2021/12/01 10:55:30;;;;;;;0.93;0.93;;;;;;;12.15;33.62;96560.34;5092143;28;20047;-70
2021/12/01 10:58:02;;;;;;;1.43;1.33;;;;;;;12.77;33.09;96616.91;5057479;28;20044;-73
2021/12/01 11:00:38;;;;;;;1.90;1.53;;;;;;;12.33;33.56;96607.19;5057105;28;20036;-73
2021/12/01 11:03:10;;;;;;;1.33;1.23;;;;;;;12.61;32.93;96625.75;5040694;28;20044;-73
2021/12/01 11:05:41;;;;;;;1.00;1.00;;;;;;;12.17;31.83;96603.47;5073994;28;20040;-71
2021/12/01 11:08:29;;;;;;;0.80;0.80;;;;;;;12.75;32.81;96611.00;5074200;28;20147;-72
2021/12/01 11:11:03;;;;;;;1.17;1.17;;;;;;;11.66;33.58;96615.09;5075136;28;20032;-72
2021/12/01 11:13:29;;;;;;;0.87;0.87;;;;;;;11.00;33.32;96611.34;5057490;28;20044;-67
2021/12/01 11:15:57;;;;;;;0.80;0.80;;;;;;;11.89;33.47;96584.91;5058482;28;20075;-71
2021/12/01 11:18:29;;;;;;;0.90;0.90;;;;;;;12.11;32.79;96603.63;5053522;28;20056;-69
2021/12/01 11:20:57;;;;;;;0.90;0.90;;;;;;;11.98;32.71;96583.47;5072143;28;20519;-71
2021/12/01 11:23:30;;;;;;;1.63;1.20;;;;;;;11.21;33.29;96622.13;5053892;28;20044;-71
2021/12/01 11:26:07;;;;;;;1.77;1.63;;;;;;;10.69;33.21;96612.53;5037642;28;20131;-71
2021/12/01 11:28:37;;;;;;;1.53;1.40;;;;;;;10.79;35.37;96601.34;5070428;28;20040;-71
2021/12/01 11:31:12;;;;;;;1.00;1.00;;;;;;;11.35;34.43;96590.78;5071510;28;20496;-71
2021/12/01 11:33:44;;;;;;;0.93;0.90;;;;;;;10.91;34.00;96636.63;5070022;28;20500;-71
2021/12/01 11:36:12;;;;;;;0.70;0.70;;;;;;;11.98;32.81;96639.31;5071301;28;20051;-70
2021/12/01 11:38:38;;;;;;;1.50;1.27;;;;;;;10.58;33.37;96589.47;5053493;28;20044;-70
2021/12/01 11:41:06;;;;;;;0.80;0.80;;;;;;;11.83;32.78;96605.31;5069842;28;20048;-72
2021/12/01 11:43:33;;;;;;;1.37;1.27;;;;;;;10.98;33.86;96632.81;5070858;28;20044;-71
2021/12/01 11:46:01;;;;;;;0.73;0.73;;;;;;;11.91;33.63;96630.69;5070021;28;20484;-67